Minneapolis, Minnesota
Traffic Map
Current Weather Conditions
Minneapolis, Minnesota
Overcast
Overcast
59°
Feels Like: 59°
Wind Chill: 59° Ceiling: 800
Heat Index: 59° Visibility: 7mi
Dew Point: 56° Wind: 5mph
Humidity: 90% Direction: 30° (NNE)
Pressure: 29.83in Gusts: 0mph
Raw Report DataKMSP 021553Z 03004KT 7SM OVC008 15/13 A2983 RMK AO2 SLP101 T01500133
Traffic Incident Summary
Active as of:
Severity:
Category:
InformationThere was an issue retrieving the traffic information for this location. Please try a different location or try again shortly.
Advertisements
Track Severe Weather on mobile